This is the latest recevied weather packets stored in our database for station/object PY5KT-13. If no packets are shown the sender has not sent any weather packets the latest 10 day(s).
| Time | Temp. | Humidity | Pressure | Rain* | Wind** | Luminosity | Snow |
|---|---|---|---|---|---|---|---|
| 1777580366 | 17.22° C | 85% | 1019.9 hPa | 0 mm | - | 25 W/m² | - |
| 1777580064 | 17.22° C | 85% | 1019.8 hPa | 0 mm | - | 39 W/m² | - |
| 1777579762 | 17.78° C | 83% | 1019.7 hPa | 0 mm | - | 47 W/m² | - |
| 1777579461 | 17.78° C | 82% | 1019.7 hPa | 0 mm | - | 40 W/m² | - |
| 1777579159 | 18.33° C | 81% | 1019.6 hPa | 0 mm | - | 47 W/m² | - |
| 1777578857 | 18.33° C | 81% | 1019.6 hPa | 0 mm | - | 62 W/m² | - |
| 1777578555 | 18.33° C | 81% | 1019.6 hPa | 0 mm | - | 96 W/m² | - |
| 1777578253 | 17.78° C | 82% | 1019.5 hPa | 0 mm | - | 100 W/m² | - |
| 1777577952 | 18.33° C | 81% | 1019.5 hPa | 0 mm | - | 166 W/m² | - |
| 1777577650 | 18.33° C | 80% | 1019.4 hPa | 0 mm | - | 140 W/m² | - |
| 1777577347 | 18.33° C | 80% | 1019.4 hPa | 0 mm | - | 111 W/m² | - |
| 1777577046 | 18.89° C | 79% | 1019.3 hPa | 0 mm | - | 89 W/m² | - |
| 1777576744 | 19.44° C | 79% | 1019.3 hPa | 0 mm | - | 67 W/m² | - |
| 1777576442 | 19.44° C | 77% | 1019.3 hPa | 0 mm | - | 63 W/m² | - |
| 1777576140 | 20.56° C | 72% | 1019.3 hPa | 0 mm | - | 64 W/m² | - |
| 1777575839 | 21.67° C | 68% | 1019.3 hPa | 0 mm | - | 90 W/m² | - |
| 1777575537 | 22.22° C | 67% | 1019.3 hPa | 0 mm | - | 140 W/m² | - |
| 1777575236 | 21.67° C | 69% | 1019.3 hPa | 0 mm | - | 209 W/m² | - |
| 1777574934 | 21.11° C | 70% | 1019.2 hPa | 0 mm | - | 100 W/m² | - |
| 1777574633 | 21.11° C | 69% | 1019.2 hPa | 0 mm | - | 277 W/m² | - |
| 1777574331 | 22.22° C | 68% | 1019.1 hPa | 0 mm | - | 312 W/m² | - |
| 1777574029 | 22.22° C | 69% | 1019.1 hPa | 0 mm | - | 324 W/m² | - |
| 1777573728 | 22.78° C | 65% | 1019.1 hPa | 0 mm | - | 341 W/m² | - |
| 1777573427 | 22.22° C | 67% | 1019 hPa | 0 mm | - | 355 W/m² | - |
| 1777573124 | 21.67° C | 71% | 1019 hPa | 0 mm | - | 387 W/m² | - |
* Rain latest hour (hover to see other rain measurements)
** Current wind speed in m/s (hover to see current wind gust speed)